Map

Track Data

SID SEASON NUMBER BASIN SUBBASIN NAME ISO_TIME NATURE LAT LON WMO_WIND WMO_PRES WMO_AGENCY TRACK_TYPE DIST2LAND LANDFALL IFLAG USA_AGENCY USA_ATCF_ID USA_LAT USA_LON USA_RECORD USA_STATUS USA_WIND USA_PRES USA_SSHS USA_R34_NE USA_R34_SE USA_R34_SW USA_R34_NW USA_R50_NE USA_R50_SE USA_R50_SW USA_R50_NW USA_R64_NE USA_R64_SE USA_R64_SW USA_R64_NW USA_POCI USA_ROCI USA_RMW USA_EYE TOKYO_LAT TOKYO_LON TOKYO_GRADE TOKYO_WIND TOKYO_PRES TOKYO_R50_DIR TOKYO_R50_LONG TOKYO_R50_SHORT TOKYO_R30_DIR TOKYO_R30_LONG TOKYO_R30_SHORT TOKYO_LAND CMA_LAT CMA_LON CMA_CAT CMA_WIND CMA_PRES HKO_LAT HKO_LON HKO_CAT HKO_WIND HKO_PRES NEWDELHI_LAT NEWDELHI_LON NEWDELHI_GRADE NEWDELHI_WIND NEWDELHI_PRES NEWDELHI_CI NEWDELHI_DP NEWDELHI_POCI REUNION_LAT REUNION_LON REUNION_TYPE REUNION_WIND REUNION_PRES REUNION_TNUM REUNION_CI REUNION_RMW REUNION_R34_NE REUNION_R34_SE REUNION_R34_SW REUNION_R34_NW REUNION_R50_NE REUNION_R50_SE REUNION_R50_SW REUNION_R50_NW REUNION_R64_NE REUNION_R64_SE REUNION_R64_SW REUNION_R64_NW BOM_LAT BOM_LON BOM_TYPE BOM_WIND BOM_PRES BOM_TNUM BOM_CI BOM_RMW BOM_R34_NE BOM_R34_SE BOM_R34_SW BOM_R34_NW BOM_R50_NE BOM_R50_SE BOM_R50_SW BOM_R50_NW BOM_R64_NE BOM_R64_SE BOM_R64_SW BOM_R64_NW BOM_ROCI BOM_POCI BOM_EYE BOM_POS_METHOD BOM_PRES_METHOD NADI_LAT NADI_LON NADI_CAT NADI_WIND NADI_PRES WELLINGTON_LAT WELLINGTON_LON WELLINGTON_WIND WELLINGTON_PRES DS824_LAT DS824_LON DS824_STAGE DS824_WIND DS824_PRES TD9636_LAT TD9636_LON TD9636_STAGE TD9636_WIND TD9636_PRES TD9635_LAT TD9635_LON TD9635_WIND TD9635_PRES TD9635_ROCI NEUMANN_LAT NEUMANN_LON NEUMANN_CLASS NEUMANN_WIND NEUMANN_PRES MLC_LAT MLC_LON MLC_CLASS MLC_WIND MLC_PRES USA_GUST BOM_GUST BOM_GUST_PER REUNION_GUST REUNION_GUST_PER USA_SEAHGT USA_SEARAD_NE USA_SEARAD_SE USA_SEARAD_SW USA_SEARAD_NW STORM_SPEED STORM_DIR
1945010S08069 1945 2 SI MM NOT_NAMED 1945-01-09 18:00:00 TS -7.50000 69.0000 main 1863 1847 O________OO___ jtwc_sh SH011945 -7.50000 69.0000 -1 -7.50000 69.0000 TC -7.50000 69.0000 7 4 224
1945010S08069 1945 2 SI MM NOT_NAMED 1945-01-09 21:00:00 TS -7.64906 68.8554 main 1847 1816 P________PP___ SH011945 -7.65250 68.8675 -1 -7.65250 68.8675 TC -7.64217 68.8313 7 4 227
1945010S08069 1945 2 SI MM NOT_NAMED 1945-01-10 00:00:00 TS -7.79582 68.6833 main 1816 1793 O________OP___ jtwc_sh SH011945 -7.80000 68.7000 -1 -7.80000 68.7000 TC -7.78746 68.6500 7 5 233
1945010S08069 1945 2 SI MM NOT_NAMED 1945-01-10 03:00:00 TS -7.94134 68.4629 main 1793 1755 P________PP___ SH011945 -7.94249 68.4725 -1 -7.94249 68.4725 TC -7.93902 68.4438 7 6 238
1945010S08069 1945 2 SI MM NOT_NAMED 1945-01-10 06:00:00 TS -8.10000 68.2000 reunion main 1755 1717 O________OO___ jtwc_sh SH011945 -8.10000 68.2000 -1 -8.10000 68.2000 TC 35 -8.10000 68.2000 2 6 238
1945010S08069 1945 2 SI MM NOT_NAMED 1945-01-10 09:00:00 TS -8.28615 67.9136 main 1717 1679 P________PP___ SH011945 -8.29248 67.9150 -1 -8.29248 67.9150 TC 35 -8.27349 67.9109 2 7 237
1945010S08069 1945 2 SI MM NOT_NAMED 1945-01-10 12:00:00 TS -8.48752 67.5958 main 1679 1641 O________OP___ jtwc_sh SH011945 -8.50000 67.6000 -1 -8.50000 67.6000 TC 35 -8.46256 67.5874 2 8 239
1945010S08069 1945 2 SI MM NOT_NAMED 1945-01-10 15:00:00 TS -8.68012 67.2484 main 1634 1596 P________PP___ SH011945 -8.68501 67.2499 -1 -8.68501 67.2499 TC 35 -8.67034 67.2452 2 8 239
1945010S08069 1945 2 SI MM NOT_NAMED 1945-01-10 18:00:00 TS -8.90000 66.9000 main 1596 1550 O________OO___ jtwc_sh SH011945 -8.90000 66.9000 -1 -8.90000 66.9000 TC 35 -8.90000 66.9000 2 8 232
1945010S08069 1945 2 SI MM NOT_NAMED 1945-01-10 21:00:00 TS -9.18484 66.5890 main 1550 1503 P________PP___ SH011945 -9.19244 66.6000 -1 -9.19244 66.6000 TC 35 -9.16965 66.5670 2 9 226
1945010S08069 1945 2 SI MM NOT_NAMED 1945-01-11 00:00:00 TS -9.48582 66.2784 main 1503 1465 O________OP___ jtwc_sh SH011945 -9.50000 66.3000 -1 -9.50000 66.3000 TC 35 -9.45746 66.2352 2 9 228
1945010S08069 1945 2 SI MM NOT_NAMED 1945-01-11 03:00:00 TS -9.76218 65.9369 main 1450 1412 P________PP___ SH011945 -9.77251 65.9500 -1 -9.77251 65.9500 TC 35 -9.74154 65.9107 2 8 232
1945010S08069 1945 2 SI MM NOT_NAMED 1945-01-11 06:00:00 TS -10.0000 65.6000 reunion main 1412 1375 O________OO___ jtwc_sh SH011945 -10.0000 65.6000 -1 -10.0000 65.6000 TC 35 -10.0000 65.6000 2 8 237
1945010S08069 1945 2 SI MM NOT_NAMED 1945-01-11 09:00:00 TS -10.1702 65.2907 main 1375 1347 P________PP___ SH011945 -10.1575 65.2849 -1 -10.1575 65.2849 TC 35 -10.1955 65.3022 2 7 241
1945010S08069 1945 2 SI MM NOT_NAMED 1945-01-11 12:00:00 TS -10.3216 65.0066 main 1347 1316 O________OP___ jtwc_sh SH011945 -10.3000 65.0000 -1 -10.3000 65.0000 TC 35 -10.3649 65.0197 2 6 238
1945010S08069 1945 2 SI MM NOT_NAMED 1945-01-11 15:00:00 TS -10.5039 64.7407 main 1310 1258 P________PP___ SH011945 -10.4925 64.7350 -1 -10.4925 64.7350 TC 35 -10.5268 64.7523 2 9 238
1945010S08069 1945 2 SI MM NOT_NAMED 1945-01-11 18:00:00 TS -10.8088 64.2232 main 1252 1200 O________OO___ jtwc_sh SH011945 -10.7000 64.5000 -1 -10.7000 64.5000 TC 35 -10.7000 64.5000 2 11 238
1945010S08069 1945 2 SI MM NOT_NAMED 1945-01-11 21:00:00 TS -11.0906 63.7776 main 1200 1148 P________PP___ SH011945 -10.8925 64.2999 -1 -10.8925 64.2999 TC 35 -10.9105 64.2686 2 10 236
1945010S08069 1945 2 SI MM NOT_NAMED 1945-01-12 00:00:00 TS -11.3684 63.3715 main 1148 1107 O________OP___ jtwc_sh SH011945 -11.1000 64.1000 -1 -11.1000 64.1000 TC 35 -11.1348 64.0498 2 10 234
1945010S08069 1945 2 SI MM NOT_NAMED 1945-01-12 03:00:00 TS -11.6614 62.9754 main 1097 1067 P________PP___ SH011945 -11.3500 63.8575 -1 -11.3500 63.8575 TC 50 -11.3667 63.8311 2 8 229
1945010S08069 1945 2 SI MM NOT_NAMED 1945-01-12 06:00:00 TS -11.9000 62.7500 reunion main 1067 1031 O____O___OO___ jtwc_sh SH011945 -11.6000 63.6000 -1 -12.8000 60.2000 99 9.90000 -11.6000 63.6000 TC 65 -11.6000 63.6000 4 7 223
1945010S08069 1945 2 SI MM NOT_NAMED 1945-01-12 09:00:00 TS -12.1364 62.5207 main 1031 991 P____P___PP___ SH011945 -11.8000 63.3574 -1 -13.2439 60.0327 99 -11.8000 63.3574 TC 65 -11.8209 63.3393 4 7 223
1945010S08069 1945 2 SI MM NOT_NAMED 1945-01-12 12:00:00 TS -12.3838 62.2835 main 991 956 O____P___OP___ jtwc_sh SH011945 -12.0000 63.1000 -1 -13.6801 59.8702 99 -12.0000 63.1000 TC 65 -12.0425 63.0648 4 7 223
1945010S08069 1945 2 SI MM NOT_NAMED 1945-01-12 15:00:00 TS -12.6603 62.0266 main 946 916 P____P___PP___ SH011945 -12.2425 62.8000 -1 -14.1007 59.7177 99 -12.2425 62.8000 TC 65 -12.2678 62.7830 4 8 221
1945010S08069 1945 2 SI MM NOT_NAMED 1945-01-12 18:00:00 TS -12.9487 61.7736 main 916 876 O____P___OO___ jtwc_sh SH011945 -12.5000 62.5000 -1 -14.4981 59.5809 99 -12.5000 62.5000 TC 65 -12.5000 62.5000 4 7 219
1945010S08069 1945 2 SI MM NOT_NAMED 1945-01-12 21:00:00 TS -13.2366 61.5493 main 871 832 P____P___PP___ SH011945 -12.7499 62.2499 -1 -14.8644 59.4651 99 -12.7499 62.2499 TC 65 -12.7509 62.2128 4 7 217
1945010S08069 1945 2 SI MM NOT_NAMED 1945-01-13 00:00:00 TS -13.5205 61.3312 main 832 792 O____P___OP___ jtwc_sh SH011945 -13.0000 62.0000 -1 -15.1919 59.3760 99 -13.0000 62.0000 TC 65 -13.0075 61.9276 4 7 218
1945010S08069 1945 2 SI MM NOT_NAMED 1945-01-13 03:00:00 TS -13.7975 61.0933 main 792 762 P____P___PP___ SH011945 -13.2575 61.6925 -1 -15.4730 59.3191 99 -13.2575 61.6925 TC 65 -13.2603 61.6535 4 7 220
1945010S08069 1945 2 SI MM NOT_NAMED 1945-01-13 06:00:00 TS -14.0500 60.8750 reunion main 762 733 O____O___OO___ jtwc_sh SH011945 -13.5000 61.4000 -1 -15.7000 59.3000 99 9.90000 -13.5000 61.4000 TC 65 -13.5000 61.4000 4 6 219
1945010S08069 1945 2 SI MM NOT_NAMED 1945-01-13 09:00:00 TS -14.2473 60.7184 main 733 708 P____P___PP___ SH011945 -13.7074 61.1849 -1 -15.8682 59.3216 99 -13.7074 61.1849 TC 65 -13.7061 61.1822 4 5 217
1945010S08069 1945 2 SI MM NOT_NAMED 1945-01-13 12:00:00 TS -14.4212 60.5901 main 708 683 O____P___OP___ jtwc_sh SH011945 -13.9000 61.0000 -1 -15.9852 59.3761 99 -13.9000 61.0000 TC 65 -13.8998 60.9845 4 4 216
1945010S08069 1945 2 SI MM NOT_NAMED 1945-01-13 15:00:00 TS -14.5850 60.4656 main 683 664 P____P___PP___ SH011945 -14.0925 60.8074 -1 -16.0614 59.4528 99 -14.0925 60.8074 TC 65 -14.0936 60.7947 4 4 217
1945010S08069 1945 2 SI MM NOT_NAMED 1945-01-13 18:00:00 TS -14.7518 60.3353 main 654 639 O____P___OO___ jtwc_sh SH011945 -14.3000 60.6000 -1 -16.1074 59.5412 99 -14.3000 60.6000 TC 65 -14.3000 60.6000 4 5 218
1945010S08069 1945 2 SI MM NOT_NAMED 1945-01-13 21:00:00 TS -14.9427 60.1732 main 639 610 P____P___PP___ SH011945 -14.5425 60.3500 -1 -16.1337 59.6308 99 -14.5425 60.3500 TC 65 -14.5520 60.3621 4 5 219
1945010S08069 1945 2 SI MM NOT_NAMED 1945-01-14 00:00:00 TS -15.1415 60.0078 main 610 585 O____P___OP___ jtwc_sh SH011945 -14.8000 60.1000 -1 -16.1509 59.7108 99 -14.8000 60.1000 TC 65 -14.8151 60.1203 4 5 217
1945010S08069 1945 2 SI MM NOT_NAMED 1945-01-14 03:00:00 TS -15.3425 59.8548 main 585 556 P____P___PP___ SH011945 -15.0650 59.8775 -1 -16.1694 59.7707 99 -15.0650 59.8775 TC 65 -15.0707 59.8934 4 5 216
1945010S08069 1945 2 SI MM NOT_NAMED 1945-01-14 06:00:00 TS -15.5250 59.7250 reunion main 556 531 O____O___OO___ jtwc_sh SH011945 -15.3000 59.7000 -1 -16.2000 59.8000 99 9.90000 -15.3000 59.7000 TC 65 -15.3000 59.7000 4 4 214
1945010S08069 1945 2 SI MM NOT_NAMED 1945-01-14 09:00:00 TS -15.6684 59.6249 main 531 517 P____P___PP___ SH011945 -15.4650 59.5849 -1 -16.2650 59.7661 99 -15.4650 59.5849 TC 65 -15.4786 59.5638 4 3 214
1945010S08069 1945 2 SI MM NOT_NAMED 1945-01-14 12:00:00 TS -15.7909 59.5419 main 517 507 O____P___OP___ jtwc_sh SH011945 -15.6000 59.5000 -1 -16.3338 59.7054 99 -15.6000 59.5000 TC 65 -15.6298 59.4621 4 3 214
1945010S08069 1945 2 SI MM NOT_NAMED 1945-01-14 15:00:00 TS -15.9189 59.4503 main 507 492 P____P___PP___ SH011945 -15.7500 59.4000 -1 -16.4094 59.6219 99 -15.7500 59.4000 TC 65 -15.7661 59.3795 4 3 215
1945010S08069 1945 2 SI MM NOT_NAMED 1945-01-14 18:00:00 TS -16.0488 59.3549 main 492 467 O____P___OO___ jtwc_sh SH011945 -15.9000 59.3000 -1 -16.4950 59.5195 99 -15.9000 59.3000 TC 65 -15.9000 59.3000 4 3 216
1945010S08069 1945 2 SI MM NOT_NAMED 1945-01-14 21:00:00 TS -16.1829 59.2515 main 467 453 P____P___PP___ SH011945 -16.0500 59.2000 -1 -16.5938 59.4022 99 -16.0500 59.2000 TC 65 -16.0378 59.2039 4 3 217
1945010S08069 1945 2 SI MM NOT_NAMED 1945-01-15 00:00:00 TS -16.3216 59.1453 main 450 425 O____P___OP___ jtwc_sh SH011945 -16.2000 59.1000 -1 -16.7088 59.2739 99 -16.2000 59.1000 TC 65 -16.1775 59.1073 4 4 216
1945010S08069 1945 2 SI MM NOT_NAMED 1945-01-15 03:00:00 TS -16.4641 59.0364 main 425 411 P____P___PP___ SH011945 -16.3425 59.0000 -1 -16.8431 59.1385 99 -16.3425 59.0000 TC 65 -16.3284 59.0070 4 4 215
1945010S08069 1945 2 SI MM NOT_NAMED 1945-01-15 06:00:00 TS -16.6250 58.9250 reunion main 411 387 O____O___OO___ jtwc_sh SH011945 -16.5000 58.9000 -1 -17.0000 59.0000 99 9.90000 -16.5000 58.9000 TC 65 -16.5000 58.9000 4 4 211
1945010S08069 1945 2 SI MM NOT_NAMED 1945-01-15 09:00:00 TS -16.8119 58.8153 main 387 362 P____P___PP___ SH011945 -16.6850 58.8075 -1 -17.1864 58.8803 99 -16.6850 58.8075 TC 65 -16.6913 58.7661 4 5 209
1945010S08069 1945 2 SI MM NOT_NAMED 1945-01-15 12:00:00 TS -17.0252 58.6956 main 362 338 O____P___OP___ jtwc_sh SH011945 -16.9000 58.7000 -1 -17.3959 58.7548 99 -16.9000 58.7000 TC 65 -16.9051 58.6277 4 5 209
1945010S08069 1945 2 SI MM NOT_NAMED 1945-01-15 15:00:00 TS -17.2589 58.5523 main 327 300 P____P___PP___ SH011945 -17.1350 58.5426 -1 -17.6244 58.6237 99 -17.1350 58.5426 TC 65 -17.1413 58.5005 4 6 208
1945010S08069 1945 2 SI MM NOT_NAMED 1945-01-15 18:00:00 TS -17.5169 58.4219 main 300 264 O____P___OO___ jtwc_sh SH011945 -17.4000 58.4000 -1 -17.8675 58.4875 99 -17.4000 58.4000 TC 65 -17.4000 58.4000 4 6 200
1945010S08069 1945 2 SI MM NOT_NAMED 1945-01-15 21:00:00 TS -17.7960 58.3419 main 264 232 P____P___PP___ SH011945 -17.6925 58.3275 -1 -18.1208 58.3466 99 -17.6925 58.3275 TC 65 -17.6784 58.3661 4 6 192
1945010S08069 1945 2 SI MM NOT_NAMED 1945-01-16 00:00:00 TS -18.0894 58.2896 main 232 200 O____P___OP___ jtwc_sh SH011945 -18.0000 58.3000 -1 -18.3803 58.2014 99 -18.0000 58.3000 TC 65 -17.9774 58.3568 4 6 189
1945010S08069 1945 2 SI MM NOT_NAMED 1945-01-16 03:00:00 TS -18.3823 58.2528 main 200 165 P____P___PP___ SH011945 -18.3000 58.3074 -1 -18.6414 58.0524 99 -18.3000 58.3074 TC 65 -18.2877 58.3442 4 6 189
1945010S08069 1945 2 SI MM NOT_NAMED 1945-01-16 06:00:00 TS -18.6750 58.2000 reunion main 165 140 O____O___OO___ jtwc_sh SH011945 -18.6000 58.3000 -1 -18.9000 57.9000 99 9.90000 -18.6000 58.3000 TC 65 -18.6000 58.3000 4 6 195
1945010S08069 1945 2 SI MM NOT_NAMED 1945-01-16 09:00:00 TS -18.9592 58.0957 main 129 105 P____P___PP___ SH011945 -18.9000 58.2300 -1 -19.1167 57.7166 99 -18.9000 58.2300 TC 65 -18.9202 58.2063 4 6 203
1945010S08069 1945 2 SI MM NOT_NAMED 1945-01-16 12:00:00 TS -19.2420 57.9501 main 105 67 O____P___OP___ jtwc_sh SH011945 -19.2000 58.1000 -1 -19.3308 57.5253 99 -19.2000 58.1000 TC 65 -19.2373 58.0751 4 6 208
1945010S08069 1945 2 SI MM NOT_NAMED 1945-01-16 15:00:00 TS -19.5281 57.7711 main 67 33 P____P___PP___ SH011945 -19.5150 57.9225 -1 -19.5466 57.3330 99 -19.5150 57.9225 TC 65 -19.5358 57.9063 4 7 214
1945010S08069 1945 2 SI MM NOT_NAMED 1945-01-16 18:00:00 TS -19.7921 57.5617 main 33 15 O____P___OO___ jtwc_sh SH011945 -19.8000 57.7000 -1 -19.7683 57.1466 99 -19.8000 57.7000 TC 65 -19.8000 57.7000 4 6 221
1945010S08069 1945 2 SI MM NOT_NAMED 1945-01-16 21:00:00 TS -20.0039 57.3378 main 23 20 P____P___PP___ SH011945 -20.0225 57.4649 -1 -20.0001 56.9732 99 -20.0225 57.4649 TC 65 -19.9705 57.4482 4 6 228
1945010S08069 1945 2 SI MM NOT_NAMED 1945-01-17 00:00:00 TS -20.1898 57.0959 main 33 33 O____P___OP___ jtwc_sh SH011945 -20.2000 57.2000 -1 -20.2465 56.8196 99 -20.2000 57.2000 TC 65 -20.1128 57.1642 4 6 233
1945010S08069 1945 2 SI MM NOT_NAMED 1945-01-17 03:00:00 TS -20.3563 56.8414 main 53 53 P____P___PP___ SH011945 -20.3200 56.8997 -1 -20.5116 56.6928 99 -20.3200 56.8997 TC 65 -20.2737 56.8731 4 6 230
1945010S08069 1945 2 SI MM NOT_NAMED 1945-01-17 06:00:00 TS -20.5750 56.6000 reunion main 73 66 O____O___OO___ jtwc_sh SH011945 -20.5000 56.6000 -1 -20.8000 56.6000 99 9.90000 -20.5000 56.6000 TC 65 -20.5000 56.6000 4 7 217
1945010S08069 1945 2 SI MM NOT_NAMED 1945-01-17 09:00:00 TS -20.9374 56.3665 main 66 41 P____P___PP___ SH011945 -20.8550 56.3276 -1 -21.1502 56.5360 99 -20.8550 56.3276 TC 65 -20.8895 56.2747 4 9 207
1945010S08069 1945 2 SI MM NOT_NAMED 1945-01-17 12:00:00 TS -21.3672 56.1720 main 42 33 O____P___OP___ jtwc_sh SH011945 -21.3000 56.1000 -1 -21.5270 56.5026 99 -21.3000 56.1000 TC 65 -21.3420 55.9853 4 9 200
1945010S08069 1945 2 SI MM NOT_NAMED 1945-01-17 15:00:00 TS -21.8160 56.0168 main 59 59 P____P___PP___ SH011945 -21.7725 55.8827 -1 -21.9206 56.4990 99 -21.7725 55.8827 TC 65 -21.7985 55.8029 4 9 192
1945010S08069 1945 2 SI MM NOT_NAMED 1945-01-17 18:00:00 TS -22.2303 55.9811 main 98 98 O____P___OO___ jtwc_sh SH011945 -22.2000 55.8000 -1 -22.3214 56.5245 99 -22.2000 55.8000 TC 65 -22.2000 55.8000 4 7 174
1945010S08069 1945 2 SI MM NOT_NAMED 1945-01-17 21:00:00 TS -22.5526 56.0876 main 143 143 P____P___PP___ SH011945 -22.4945 55.8725 -1 -22.7195 56.5781 99 -22.4945 55.8725 TC 65 -22.5020 56.0273 4 7 147
1945010S08069 1945 2 SI MM NOT_NAMED 1945-01-18 00:00:00 TS -22.8287 56.3978 main 176 176 O____P___OP___ jtwc_sh SH011945 -22.7000 56.2000 -1 -23.1051 56.6591 99 -22.7000 56.2000 TC 65 -22.7177 56.4450 4 9 129
1945010S08069 1945 2 SI MM NOT_NAMED 1945-01-18 03:00:00 TS -23.1068 56.8316 main 226 226 P____P___PP___ SH011945 -22.8612 56.8172 -1 -23.4686 56.7667 99 -22.8612 56.8172 TC 65 -22.8743 56.9904 4 10 130
1945010S08069 1945 2 SI MM NOT_NAMED 1945-01-18 06:00:00 TS -23.4571 57.2000 reunion main 284 284 O____O___OO___ jtwc_sh SH011945 -23.0000 57.6000 -1 -23.8000 56.9000 99 9.90000 -23.0000 57.6000 TC 65 -23.0000 57.6000 4 10 168
1945010S08069 1945 2 SI MM NOT_NAMED 1945-01-18 09:00:00 NR -24.0921 57.0576 main 338 338 _____P________ SH011945 -1 -24.0921 57.0576 99 TC 4 9 177
1945010S08069 1945 2 SI MM NOT_NAMED 1945-01-18 12:00:00 NR -24.3476 57.2370 main 363 363 _____P________ -1 -24.3476 57.2370 99 4 6 144
1945010S08069 1945 2 SI MM NOT_NAMED 1945-01-18 15:00:00 NR -24.5716 57.4350 main 402 402 _____P________ -1 -24.5716 57.4350 99 4 6 138
1945010S08069 1945 2 SI MM NOT_NAMED 1945-01-18 18:00:00 NR -24.7693 57.6488 main 431 431 _____P________ -1 -24.7693 57.6488 99 5 133
1945010S08069 1945 2 SI MM NOT_NAMED 1945-01-18 21:00:00 NR -24.9458 57.8752 main 456 456 _____P________ -1 -24.9458 57.8752 99 5 129
1945010S08069 1945 2 SI MM NOT_NAMED 1945-01-19 00:00:00 NR -25.1063 58.1112 main 485 485 _____P________ -1 -25.1063 58.1112 99 5 126
1945010S08069 1945 2 SI MM NOT_NAMED 1945-01-19 03:00:00 NR -25.2560 58.3538 main 519 519 _____P________ -1 -25.2560 58.3538 99 5 124
1945010S08069 1945 2 SI MM NOT_NAMED 1945-01-19 06:00:00 NR -25.4000 58.6000 reunion main 539 _____O________ -1 -25.4000 58.6000 99 9.90000 5 123

About IBTrACS Database

This database is a web-friendly format of International Best Track Archive for Climate Stewardship (IBTrACS), a global best track data archive curated by NOAA dating back to 1842.

Updated: 2021-10-19